createdAt,value
2022-10-04T14:04:17.351Z,1451.25
2022-10-04T14:05:17.599Z,1428.75
2022-10-04T14:06:17.370Z,1456.88
2022-10-04T14:07:17.301Z,1479.38
2022-10-04T14:08:17.348Z,1423.12
2022-10-04T14:09:17.283Z,1428.75
2022-10-04T14:10:17.262Z,1445.62
2022-10-04T14:11:17.258Z,1445.62
2022-10-04T14:12:17.285Z,1445.62
2022-10-04T14:13:17.226Z,1479.38
2022-10-04T14:14:17.241Z,1479.38
2022-10-04T14:15:17.193Z,1440.00
2022-10-04T14:16:17.227Z,1462.50
2022-10-04T14:17:17.220Z,1456.88
2022-10-04T14:18:17.314Z,1468.12
2022-10-04T14:19:17.141Z,1434.38
2022-10-04T14:20:17.401Z,1378.12
2022-10-04T14:21:19.627Z,1428.75
2022-10-04T14:22:17.413Z,1428.75
2022-10-04T14:23:17.146Z,1395.00
2022-10-04T14:24:17.186Z,1361.25
2022-10-04T14:25:21.129Z,1288.12
2022-10-04T14:26:17.105Z,1293.75
2022-10-04T14:27:17.998Z,1310.62
2022-10-04T14:28:17.089Z,1327.50
2022-10-04T14:29:17.035Z,1299.38
2022-10-04T14:30:17.010Z,1321.88
2022-10-04T14:31:17.051Z,1316.25
2022-10-04T14:32:17.076Z,1321.88
2022-10-04T14:33:16.961Z,1338.75
2022-10-04T14:34:17.045Z,1288.12
2022-10-04T14:35:16.953Z,1271.25
2022-10-04T14:36:16.962Z,1248.75
2022-10-04T14:37:16.922Z,1226.25
2022-10-04T14:38:16.914Z,1254.38
2022-10-04T14:39:16.903Z,1153.12
2022-10-04T14:40:16.907Z,1175.62
2022-10-04T14:41:16.919Z,1164.38
2022-10-04T14:42:16.878Z,1170.00
2022-10-04T14:43:16.841Z,1192.50
2022-10-04T14:44:16.821Z,1181.25
2022-10-04T14:45:16.814Z,1136.25
2022-10-04T14:46:16.921Z,1113.75
2022-10-04T14:47:16.800Z,1051.88
2022-10-04T14:48:16.763Z,1108.12
2022-10-04T14:49:16.758Z,1080.00
2022-10-04T14:50:16.762Z,1023.75
2022-10-04T14:51:16.816Z,866.25
2022-10-04T14:52:16.765Z,866.25
2022-10-04T14:53:16.699Z,950.62
2022-10-04T14:54:16.721Z,871.88
2022-10-04T14:55:16.747Z,866.25
2022-10-04T14:56:16.687Z,905.62
2022-10-04T14:57:16.742Z,956.25
2022-10-04T14:58:16.704Z,1046.25
2022-10-04T14:59:16.665Z,1012.50
2022-10-04T15:00:16.689Z,950.62
2022-10-04T15:01:16.728Z,894.38
2022-10-04T15:02:16.694Z,765.00
2022-10-04T15:03:16.692Z,753.75
2022-10-04T15:04:16.662Z,669.38
2022-10-04T15:05:16.598Z,675.00
2022-10-04T15:06:16.808Z,742.50
2022-10-04T15:07:16.609Z,793.12
2022-10-04T15:08:17.248Z,776.25
2022-10-04T15:09:18.415Z,708.75
2022-10-04T15:10:16.968Z,607.50
2022-10-04T15:11:16.695Z,551.25
2022-10-04T15:12:36.463Z,556.88
2022-10-04T15:13:17.444Z,534.38
2022-10-04T15:14:16.585Z,708.75
2022-10-04T15:15:16.830Z,765.00
2022-10-04T15:16:16.504Z,731.25
2022-10-04T15:17:16.469Z,720.00
2022-10-04T15:18:16.418Z,641.25
2022-10-04T15:19:16.446Z,714.38
2022-10-04T15:20:16.367Z,658.12
2022-10-04T15:21:16.350Z,618.75
2022-10-04T15:22:16.407Z,551.25
2022-10-04T15:23:16.368Z,528.75
2022-10-04T15:24:16.345Z,528.75
2022-10-04T15:25:16.328Z,466.88
2022-10-04T15:26:16.278Z,382.50
2022-10-04T15:27:16.480Z,303.75
2022-10-04T15:28:16.330Z,275.62
2022-10-04T15:29:16.319Z,264.38
2022-10-04T15:30:16.244Z,253.12
2022-10-04T15:31:16.666Z,247.50
2022-10-04T15:32:16.211Z,241.88
2022-10-04T15:33:16.204Z,230.62
2022-10-04T15:34:16.227Z,225.00
2022-10-04T15:35:16.219Z,225.00
2022-10-04T15:36:16.180Z,225.00
2022-10-04T15:37:16.165Z,219.38
2022-10-04T15:38:16.128Z,208.12
2022-10-04T15:39:16.122Z,202.50
2022-10-04T15:40:16.109Z,196.88
2022-10-04T15:41:20.143Z,185.62
2022-10-04T15:42:16.077Z,185.62
2022-10-04T15:43:16.065Z,174.38
2022-10-04T15:44:20.353Z,174.38
2022-10-04T15:45:16.066Z,168.75
2022-10-04T15:46:16.091Z,163.12
2022-10-04T15:47:16.016Z,157.50
2022-10-04T15:48:15.997Z,146.25
2022-10-04T15:49:15.992Z,140.62
2022-10-04T15:50:15.989Z,135.00
2022-10-04T15:51:16.012Z,135.00
2022-10-04T15:52:16.007Z,129.38
2022-10-04T15:53:20.103Z,129.38
2022-10-04T15:54:15.964Z,129.38
2022-10-04T15:55:15.945Z,123.75
2022-10-04T15:56:15.951Z,118.12
2022-10-04T15:57:15.872Z,118.12
2022-10-04T15:58:17.583Z,112.50
2022-10-04T15:59:15.877Z,112.50
2022-10-04T16:00:15.864Z,106.88
2022-10-04T16:01:15.897Z,106.88
2022-10-04T16:02:17.699Z,101.25
2022-10-04T16:03:15.848Z,101.25
2022-10-04T16:04:16.586Z,95.62
2022-10-04T16:05:15.854Z,95.62
2022-10-04T16:06:15.881Z,95.62
2022-10-04T16:07:16.101Z,95.62
2022-10-04T16:08:15.746Z,90.00
2022-10-04T16:09:16.000Z,90.00
2022-10-04T16:10:15.713Z,84.38
2022-10-04T16:11:15.716Z,84.38
2022-10-04T16:12:20.173Z,78.75
2022-10-04T16:13:15.769Z,78.75
2022-10-04T16:14:15.833Z,78.75
2022-10-04T16:15:15.652Z,73.12
2022-10-04T16:16:15.942Z,73.12
2022-10-04T16:17:15.981Z,67.50
2022-10-04T16:18:15.725Z,67.50
2022-10-04T16:19:15.625Z,61.88
2022-10-04T16:20:15.600Z,61.88
2022-10-04T16:21:15.583Z,56.25
2022-10-04T16:22:15.700Z,56.25
2022-10-04T16:23:15.537Z,50.62
2022-10-04T16:24:15.530Z,50.62
2022-10-04T16:25:15.527Z,50.62
2022-10-04T16:26:15.565Z,45.00
2022-10-04T16:27:15.516Z,45.00
2022-10-04T16:28:15.550Z,39.38
2022-10-04T16:29:15.503Z,39.38
2022-10-04T16:30:26.557Z,33.75
2022-10-04T16:31:20.092Z,33.75
2022-10-04T16:32:15.450Z,33.75
2022-10-04T16:33:15.428Z,28.12
2022-10-04T16:34:15.438Z,28.12
2022-10-04T16:35:16.200Z,22.50
2022-10-04T16:36:15.432Z,22.50
2022-10-04T16:37:15.434Z,22.50
2022-10-04T16:38:15.385Z,16.88
2022-10-04T16:39:15.342Z,16.88
2022-10-04T16:40:16.030Z,16.88
2022-10-04T16:41:15.411Z,16.88
2022-10-04T16:42:15.651Z,11.25
2022-10-04T16:43:15.317Z,11.25
2022-10-04T16:44:15.291Z,11.25
2022-10-04T16:45:15.268Z,11.25
2022-10-04T16:46:15.379Z,5.62
2022-10-04T16:47:15.261Z,5.62
2022-10-04T16:48:15.256Z,5.62
2022-10-04T16:49:18.122Z,5.62
2022-10-04T16:50:15.580Z,5.62
2022-10-04T16:51:16.231Z,5.62
2022-10-04T16:52:17.014Z,5.62
2022-10-04T16:53:17.398Z,5.62
2022-10-04T16:54:15.136Z,5.62
2022-10-04T16:55:15.444Z,0.00
2022-10-04T16:56:15.155Z,0.00
2022-10-04T20:25:36.851Z,0.00
2022-10-04T20:26:36.565Z,0.00
2022-10-04T20:27:36.561Z,0.00
2022-10-04T20:28:36.984Z,0.00
2022-10-04T20:29:36.532Z,0.00
2022-10-04T20:30:36.501Z,0.00
2022-10-04T20:31:36.608Z,0.00
2022-10-04T20:32:36.464Z,0.00
2022-10-04T20:33:36.495Z,0.00
2022-10-04T20:34:36.445Z,0.00
2022-10-04T20:35:36.431Z,0.00
2022-10-04T20:36:36.475Z,0.00
2022-10-04T20:37:36.445Z,0.00
2022-10-04T20:38:36.426Z,0.00
2022-10-04T20:39:36.378Z,0.00
2022-10-04T20:40:36.397Z,0.00
2022-10-04T20:41:36.322Z,0.00
2022-10-04T20:42:36.385Z,0.00
2022-10-04T20:43:36.358Z,0.00
2022-10-04T20:44:36.568Z,0.00
2022-10-04T20:45:36.401Z,0.00
2022-10-04T20:46:36.297Z,0.00
2022-10-04T20:47:36.260Z,0.00
2022-10-04T20:48:36.289Z,0.00
2022-10-04T20:49:36.550Z,0.00
2022-10-04T20:50:36.208Z,0.00
2022-10-04T20:51:36.468Z,0.00
2022-10-04T20:53:08.561Z,0.00
2022-10-04T20:54:08.257Z,0.00
2022-10-04T20:55:08.315Z,0.00
2022-10-04T20:56:08.248Z,0.00
2022-10-04T20:57:08.227Z,0.00
2022-10-04T20:58:08.209Z,0.00
2022-10-04T20:59:08.215Z,0.00
2022-10-04T21:00:08.466Z,0.00
2022-10-04T21:01:08.183Z,0.00
2022-10-04T21:02:08.232Z,0.00
2022-10-04T21:03:08.133Z,0.00
2022-10-04T21:04:08.099Z,0.00
2022-10-04T21:05:08.099Z,0.00
2022-10-04T21:06:08.084Z,0.00
